Time;durP1;ratioP1;P1;durP2;ratioP2;P2;SDS_P1;SDS_P2;PMS_P1;PMS_P2;Temp;Humidity;BMP_temperature;BMP_pressure;BME280_temperature;BME280_humidity;BME280_pressure;Samples;Min_cycle;Max_cycle;Signal;HPM_P1;HPM_P2
2023/08/16 00:01:29;;;;;;;4.90;2.10;;;;;;;;;;5073005;28;20048;-34
2023/08/16 00:03:56;;;;;;;2.35;1.90;;;22.60;73.50;;;;;;5072682;28;20537;-37
2023/08/16 00:06:23;;;;;;;2.08;1.63;;;22.60;85.80;;;;;;5073187;28;20143;-38
2023/08/16 00:08:53;;;;;;;2.20;1.90;;;;;;;;;;5072685;28;20053;-38
2023/08/16 00:11:21;;;;;;;2.72;2.10;;;22.00;69.20;;;;;;5073053;28;20048;-36
2023/08/16 00:13:48;;;;;;;2.08;1.70;;;22.00;74.60;;;;;;5072836;28;20087;-37
2023/08/16 00:16:14;;;;;;;3.05;1.80;;;21.70;85.20;;;;;;5072471;28;20128;-37
2023/08/16 00:18:41;;;;;;;3.47;1.90;;;21.00;78.00;;;;;;5072805;28;20123;-39
2023/08/16 00:21:08;;;;;;;2.88;1.90;;;;;;;;;;5052741;28;20128;-35
2023/08/16 00:23:35;;;;;;;3.00;2.10;;;;;;;;;;5052347;28;20136;-39
2023/08/16 00:26:02;;;;;;;2.92;1.80;;;;;;;;;;5053032;28;20135;-37
2023/08/16 00:28:30;;;;;;;2.97;1.70;;;21.90;85.40;;;;;;5052497;28;20570;-36
2023/08/16 00:30:57;;;;;;;2.65;1.90;;;21.90;85.00;;;;;;5052483;28;20128;-39
2023/08/16 00:33:24;;;;;;;2.05;1.77;;;;;;;;;;5052434;28;20473;-39
2023/08/16 00:35:52;;;;;;;2.45;1.80;;;22.00;69.10;;;;;;5052239;28;20148;-38
2023/08/16 00:38:19;;;;;;;3.08;2.20;;;22.10;85.80;;;;;;5072585;28;20127;-39
2023/08/16 00:40:48;;;;;;;2.15;1.80;;;22.20;86.40;;;;;;5055300;28;20084;-35
2023/08/16 00:43:15;;;;;;;2.63;1.70;;;21.40;80.00;;;;;;5052171;28;20052;-37
2023/08/16 00:45:43;;;;;;;4.78;2.03;;;23.00;86.30;;;;;;5052376;28;20045;-37
2023/08/16 00:48:10;;;;;;;2.45;1.90;;;;;;;;;;5052490;28;20137;-34
2023/08/16 00:50:37;;;;;;;2.22;1.80;;;;;;;;;;5051910;28;20060;-37
2023/08/16 00:53:04;;;;;;;3.70;2.05;;;;;;;;;;5052283;28;20120;-39
2023/08/16 00:55:31;;;;;;;2.10;1.90;;;22.00;76.30;;;;;;5052231;28;20132;-38
2023/08/16 00:57:58;;;;;;;2.03;1.60;;;22.10;85.80;;;;;;5052128;28;20132;-39
2023/08/16 01:00:25;;;;;;;2.22;1.90;;;22.40;85.50;;;;;;5051932;28;20128;-39
2023/08/16 01:02:53;;;;;;;3.15;2.00;;;21.60;73.80;;;;;;5051826;28;20127;-36
2023/08/16 01:05:20;;;;;;;2.55;1.90;;;21.90;75.10;;;;;;5051700;28;20059;-36
2023/08/16 01:07:47;;;;;;;2.42;1.90;;;;;;;;;;5052061;28;20128;-32
2023/08/16 01:10:14;;;;;;;2.17;1.80;;;23.10;85.50;;;;;;5051838;28;20127;-38
2023/08/16 01:12:43;;;;;;;2.22;1.90;;;21.20;84.60;;;;;;5055323;28;20131;-39
2023/08/16 01:15:12;;;;;;;1.90;1.70;;;21.90;68.90;;;;;;5072191;28;20127;-37
2023/08/16 01:17:39;;;;;;;2.92;1.90;;;21.60;85.60;;;;;;5071781;28;20128;-38
2023/08/16 01:20:08;;;;;;;2.97;1.95;;;21.80;85.20;;;;;;5061050;28;20045;-36
2023/08/16 01:22:38;;;;;;;3.08;1.88;;;21.90;85.40;;;;;;5051542;28;20085;-37
2023/08/16 01:25:12;;;;;;;2.58;1.90;;;22.60;85.90;;;;;;5052017;28;20132;-35
2023/08/16 01:27:40;;;;;;;2.45;1.85;;;21.90;68.80;;;;;;5051625;28;20574;-36
2023/08/16 01:30:08;;;;;;;2.05;1.75;;;21.70;85.10;;;;;;5051637;28;20127;-37
2023/08/16 01:32:36;;;;;;;2.30;1.88;;;;;;;;;;5051651;28;20128;-38
2023/08/16 01:35:04;;;;;;;4.10;2.05;;;22.00;85.20;;;;;;5051581;28;20469;-37
2023/08/16 01:37:31;;;;;;;2.15;1.70;;;;;;;;;;5065381;28;20048;-36
2023/08/16 01:40:00;;;;;;;2.53;1.80;;;20.80;83.30;;;;;;5062463;28;20684;-35
2023/08/16 01:42:27;;;;;;;2.15;1.67;;;;;;;;;;5051289;28;20136;-37
2023/08/16 01:44:57;;;;;;;1.80;1.60;;;21.60;85.10;;;;;;5051818;28;20136;-38
2023/08/16 01:47:23;;;;;;;2.00;1.70;;;21.70;85.00;;;;;;5052596;28;20569;-36
2023/08/16 01:49:50;;;;;;;2.22;1.75;;;21.60;84.90;;;;;;5051618;28;20123;-35
2023/08/16 01:52:17;;;;;;;1.90;1.70;;;22.90;73.20;;;;;;5050987;28;20494;-36
2023/08/16 01:54:44;;;;;;;2.17;1.80;;;22.10;85.30;;;;;;5051594;28;20133;-35
2023/08/16 01:57:10;;;;;;;2.83;1.80;;;21.60;85.00;;;;;;5051334;28;20128;-40
2023/08/16 01:59:37;;;;;;;2.40;1.92;;;21.50;73.80;;;;;;5051689;28;20124;-35
2023/08/16 02:02:05;;;;;;;2.63;1.70;;;22.20;84.80;;;;;;5051112;28;20136;-36
2023/08/16 02:04:32;;;;;;;2.53;1.80;;;21.60;84.60;;;;;;5051158;28;20080;-38
2023/08/16 02:06:59;;;;;;;3.05;1.98;;;21.80;84.80;;;;;;5051338;28;20654;-35
2023/08/16 02:09:25;;;;;;;2.00;1.70;;;21.60;74.70;;;;;;5059171;28;20091;-34
2023/08/16 02:11:52;;;;;;;3.25;1.75;;;21.70;84.70;;;;;;5071157;28;20117;-37
2023/08/16 02:14:19;;;;;;;2.65;1.75;;;;;;;;;;5071075;28;20132;-37
2023/08/16 02:16:46;;;;;;;1.70;1.40;;;22.80;85.10;;;;;;5071295;28;20506;-36
2023/08/16 02:19:14;;;;;;;2.10;1.60;;;21.70;68.50;;;;;;5054885;28;20123;-36
2023/08/16 02:21:40;;;;;;;2.50;1.88;;;21.30;84.90;;;;;;5055037;28;20570;-39
2023/08/16 02:24:09;;;;;;;2.45;1.70;;;22.20;75.30;;;;;;5054760;28;20129;-38
2023/08/16 02:26:36;;;;;;;3.55;1.70;;;;;;;;;;5055122;28;20045;-34
2023/08/16 02:29:03;;;;;;;2.10;1.80;;;22.10;85.30;;;;;;5054853;28;20476;-36
2023/08/16 02:31:29;;;;;;;2.15;1.88;;;22.10;85.50;;;;;;5054985;28;20131;-39
2023/08/16 02:33:57;;;;;;;3.42;1.75;;;;;;;;;;5054593;28;20598;-37
2023/08/16 02:36:25;;;;;;;2.05;1.80;;;21.70;68.40;;;;;;5059241;28;20048;-36
2023/08/16 02:38:52;;;;;;;2.63;1.80;;;21.80;84.80;;;;;;5058014;28;20135;-39
2023/08/16 02:41:18;;;;;;;1.92;1.70;;;21.40;81.70;;;;;;5054742;28;20044;-36
2023/08/16 02:43:45;;;;;;;2.33;1.67;;;21.40;85.00;;;;;;5054497;28;20137;-38
2023/08/16 02:46:12;;;;;;;2.95;2.00;;;21.80;71.90;;;;;;5054804;28;20120;-38
2023/08/16 02:48:39;;;;;;;3.10;1.58;;;;;;;;;;5054444;28;20127;-36
2023/08/16 02:51:06;;;;;;;2.17;1.80;;;21.30;84.60;;;;;;5054348;28;20128;-35
2023/08/16 02:53:34;;;;;;;2.28;1.80;;;21.60;76.30;;;;;;5054270;28;20567;-36
2023/08/16 02:56:01;;;;;;;2.03;1.70;;;21.70;74.70;;;;;;5054790;28;20124;-36
2023/08/16 02:58:27;;;;;;;1.75;1.63;;;21.50;84.80;;;;;;5054368;28;20545;-36
2023/08/16 03:00:54;;;;;;;2.00;1.80;;;21.30;85.60;;;;;;5054468;28;20080;-38
2023/08/16 03:03:21;;;;;;;3.00;1.80;;;;;;;;;;5053950;28;20508;-36
2023/08/16 03:05:48;;;;;;;4.05;1.80;;;21.40;84.90;;;;;;5062517;28;20067;-37
2023/08/16 03:08:15;;;;;;;2.15;1.60;;;;;;;;;;5074677;28;20140;-36
2023/08/16 03:10:43;;;;;;;2.58;1.90;;;21.60;84.60;;;;;;5074396;28;20132;-36
2023/08/16 03:13:10;;;;;;;4.18;1.80;;;21.30;84.80;;;;;;5073770;28;20120;-37
2023/08/16 03:15:37;;;;;;;1.92;1.70;;;20.60;84.80;;;;;;5073420;28;20127;-39
2023/08/16 03:18:04;;;;;;;2.55;1.73;;;21.60;68.30;;;;;;5074063;28;20106;-37
2023/08/16 03:20:31;;;;;;;2.55;1.70;;;22.10;85.50;;;;;;5074305;28;20127;-36
2023/08/16 03:22:58;;;;;;;2.15;1.80;;;;;;;;;;5073951;28;20128;-34
2023/08/16 03:25:24;;;;;;;2.42;1.90;;;21.40;84.80;;;;;;5073744;28;20054;-39
2023/08/16 03:27:52;;;;;;;3.13;1.80;;;22.10;86.10;;;;;;5053805;28;20120;-39
2023/08/16 03:30:19;;;;;;;2.03;1.80;;;22.00;78.80;;;;;;5053537;28;20132;-40
2023/08/16 03:32:46;;;;;;;2.28;2.00;;;;;;;;;;5053843;28;20132;-34
2023/08/16 03:35:13;;;;;;;2.55;1.80;;;22.30;81.70;;;;;;5053994;28;20128;-38
2023/08/16 03:37:40;;;;;;;2.17;1.80;;;;;;;;;;5071447;28;20116;-39
2023/08/16 03:40:09;;;;;;;2.58;1.75;;;20.60;84.30;;;;;;5073601;28;20084;-37
2023/08/16 03:42:36;;;;;;;2.28;1.80;;;21.30;84.70;;;;;;5073439;28;20236;-39
2023/08/16 03:45:04;;;;;;;3.72;1.95;;;21.90;76.00;;;;;;5073641;28;20135;-35
2023/08/16 03:47:31;;;;;;;3.15;2.03;;;;;;;;;;5071812;28;20561;-36
2023/08/16 03:49:59;;;;;;;2.20;1.90;;;;;;;;;;5073478;28;20576;-34
2023/08/16 03:52:26;;;;;;;2.17;1.98;;;21.40;84.60;;;;;;5073404;28;20064;-31
2023/08/16 03:54:53;;;;;;;2.35;2.00;;;20.90;72.90;;;;;;5073444;28;20123;-32
2023/08/16 03:57:21;;;;;;;2.42;1.80;;;;;;;;;;5063712;28;20068;-36
2023/08/16 03:59:47;;;;;;;2.40;2.10;;;21.20;73.00;;;;;;5073555;28;20091;-30
2023/08/16 04:02:15;;;;;;;2.10;1.90;;;20.50;84.40;;;;;;5064686;28;20553;-30
2023/08/16 04:04:42;;;;;;;2.63;2.00;;;21.60;85.30;;;;;;5066563;28;20077;-30
2023/08/16 04:07:09;;;;;;;2.25;2.00;;;;;;;;;;5053487;28;20463;-32
2023/08/16 04:09:36;;;;;;;2.53;1.77;;;21.50;85.10;;;;;;5053350;28;20152;-30
2023/08/16 04:12:03;;;;;;;2.17;1.77;;;21.30;85.00;;;;;;5051798;28;20136;-30
2023/08/16 04:14:30;;;;;;;2.83;2.25;;;;;;;;;;5059320;28;20419;-32
2023/08/16 04:16:56;;;;;;;3.42;2.20;;;21.80;83.90;;;;;;5073080;28;20446;-30
2023/08/16 04:19:24;;;;;;;2.30;1.70;;;21.50;68.30;;;;;;5072814;28;20127;-35
2023/08/16 04:21:51;;;;;;;2.50;1.90;;;;;;;;;;5072974;28;20151;-35
2023/08/16 04:24:18;;;;;;;2.75;1.90;;;21.70;85.40;;;;;;5072173;28;20128;-31
2023/08/16 04:26:45;;;;;;;2.80;1.90;;;21.60;84.80;;;;;;5072495;28;20127;-31
2023/08/16 04:29:12;;;;;;;3.08;2.00;;;;;;;;;;5072616;28;20147;-33
2023/08/16 04:31:39;;;;;;;2.10;1.90;;;21.40;84.70;;;;;;5072488;28;20101;-30
2023/08/16 04:34:07;;;;;;;2.20;1.75;;;;;;;;;;5069077;28;20041;-34
2023/08/16 04:36:35;;;;;;;3.08;1.75;;;21.40;68.20;;;;;;5058056;28;20060;-36
2023/08/16 04:39:02;;;;;;;2.50;1.98;;;;;;;;;;5072715;28;20060;-36
2023/08/16 04:41:29;;;;;;;2.38;2.08;;;22.60;85.60;;;;;;5071658;28;20053;-30
2023/08/16 04:43:56;;;;;;;2.15;1.80;;;;;;;;;;5071397;28;20132;-34
2023/08/16 04:46:23;;;;;;;2.00;1.80;;;21.10;85.00;;;;;;5072161;28;20585;-30
2023/08/16 04:48:50;;;;;;;2.65;1.90;;;22.50;85.20;;;;;;5072472;28;20049;-30
2023/08/16 04:51:17;;;;;;;2.42;1.80;;;21.40;84.90;;;;;;5072612;28;20105;-31
2023/08/16 04:53:46;;;;;;;2.92;1.98;;;21.40;68.20;;;;;;5071765;28;20070;-35
2023/08/16 04:56:13;;;;;;;2.70;1.90;;;;;;;;;;5052586;28;20044;-35
2023/08/16 04:58:41;;;;;;;4.05;1.73;;;;;;;;;;5062586;28;20072;-35
2023/08/16 05:01:09;;;;;;;2.25;1.77;;;21.60;84.90;;;;;;5062300;28;20128;-38
2023/08/16 05:03:36;;;;;;;2.25;1.70;;;21.20;84.60;;;;;;5060148;28;20448;-36
2023/08/16 05:06:04;;;;;;;2.50;1.92;;;21.40;68.10;;;;;;5059812;28;20395;-36
2023/08/16 05:08:31;;;;;;;2.50;1.80;;;21.40;68.00;;;;;;5057338;28;20048;-36
2023/08/16 05:10:59;;;;;;;1.90;1.67;;;20.90;84.60;;;;;;5059488;28;20132;-37
2023/08/16 05:13:26;;;;;;;2.13;1.73;;;21.60;85.30;;;;;;5066588;28;20076;-36
2023/08/16 05:15:53;;;;;;;2.30;1.70;;;;;;;;;;5071132;28;20127;-37
2023/08/16 05:18:20;;;;;;;1.60;1.40;;;21.30;85.50;;;;;;5071970;28;20565;-35
2023/08/16 05:20:47;;;;;;;2.05;1.73;;;21.30;85.00;;;;;;5071877;28;20127;-38
2023/08/16 05:23:13;;;;;;;2.00;1.73;;;21.20;75.50;;;;;;5071706;28;20131;-36
2023/08/16 05:25:40;;;;;;;1.80;1.70;;;21.20;84.20;;;;;;5062704;28;20123;-40
2023/08/16 05:28:08;;;;;;;2.00;1.73;;;21.50;84.90;;;;;;5071777;28;20123;-39
2023/08/16 05:30:35;;;;;;;1.90;1.73;;;21.70;85.00;;;;;;5071646;28;20079;-37
2023/08/16 05:33:02;;;;;;;2.47;1.70;;;;;;;;;;5070355;28;20612;-37
2023/08/16 05:35:29;;;;;;;2.17;1.65;;;21.10;84.30;;;;;;5070748;28;20059;-36
2023/08/16 05:37:56;;;;;;;2.08;1.75;;;;;;;;;;5071133;28;20494;-34
2023/08/16 05:40:23;;;;;;;2.25;1.80;;;;;;;;;;5071438;28;20211;-35
2023/08/16 05:42:50;;;;;;;2.55;1.90;;;21.70;70.70;;;;;;5067202;28;20045;-35
2023/08/16 05:45:21;;;;;;;1.90;1.65;;;21.40;84.80;;;;;;5063420;28;20472;-37
2023/08/16 05:47:47;;;;;;;1.95;1.75;;;21.60;85.10;;;;;;5071338;28;20059;-39
2023/08/16 05:50:14;;;;;;;2.22;1.95;;;21.00;73.90;;;;;;5071292;28;20072;-37
2023/08/16 05:52:41;;;;;;;1.88;1.60;;;;;;;;;;5060047;28;20123;-36
2023/08/16 05:55:08;;;;;;;2.10;1.52;;;21.30;68.00;;;;;;5072693;28;20596;-34
2023/08/16 05:57:35;;;;;;;2.17;1.77;;;21.40;84.60;;;;;;5075661;28;20128;-36
2023/08/16 06:00:03;;;;;;;2.45;1.70;;;21.20;85.10;;;;;;5075562;28;20132;-39
2023/08/16 06:02:31;;;;;;;3.65;2.10;;;21.30;85.40;;;;;;5074282;28;20062;-37
2023/08/16 06:04:58;;;;;;;2.65;1.75;;;21.40;84.60;;;;;;5056809;28;20476;-38
2023/08/16 06:07:26;;;;;;;4.97;1.80;;;22.40;85.50;;;;;;5055409;28;20489;-35
2023/08/16 06:09:53;;;;;;;2.70;1.80;;;20.90;74.40;;;;;;5055325;28;20136;-38
2023/08/16 06:12:20;;;;;;;3.35;1.73;;;;;;;;;;5054869;28;20479;-33
2023/08/16 06:14:47;;;;;;;2.15;1.67;;;;;;;;;;5075161;28;20079;-34
2023/08/16 06:17:13;;;;;;;2.83;1.80;;;22.30;85.20;;;;;;5075302;28;20124;-37
2023/08/16 06:19:41;;;;;;;2.80;1.90;;;21.20;84.50;;;;;;5074934;28;20050;-38
2023/08/16 06:22:08;;;;;;;2.38;1.70;;;;;;;;;;5068798;28;20128;-37
2023/08/16 06:24:36;;;;;;;3.85;1.88;;;21.10;78.60;;;;;;5064145;28;20127;-39
2023/08/16 06:27:03;;;;;;;3.70;1.60;;;22.30;76.20;;;;;;5063666;28;20048;-35
2023/08/16 06:29:31;;;;;;;2.70;1.92;;;21.30;68.00;;;;;;5066443;28;20131;-36
2023/08/16 06:31:59;;;;;;;5.10;1.98;;;;;;;;;;5071402;28;20135;-37
2023/08/16 06:34:26;;;;;;;2.67;1.92;;;21.00;70.10;;;;;;5064828;28;20052;-34
2023/08/16 06:36:54;;;;;;;2.13;1.80;;;21.70;84.80;;;;;;5074300;28;20053;-37
2023/08/16 06:39:21;;;;;;;2.63;2.05;;;20.40;84.60;;;;;;5074609;28;20570;-38
2023/08/16 06:41:48;;;;;;;2.78;1.77;;;20.20;80.10;;;;;;5074619;28;20516;-36
2023/08/16 06:44:15;;;;;;;2.17;1.67;;;;;;;;;;5073474;28;20486;-38
2023/08/16 06:46:42;;;;;;;2.97;2.25;;;20.50;84.40;;;;;;5074749;28;20131;-40
2023/08/16 06:49:09;;;;;;;2.92;1.88;;;20.90;84.80;;;;;;5074771;28;20135;-38
2023/08/16 06:51:36;;;;;;;3.38;1.70;;;;;;;;;;5074517;28;20088;-32
2023/08/16 06:54:04;;;;;;;2.05;1.50;;;22.10;85.00;;;;;;5067199;28;20140;-36
2023/08/16 06:56:31;;;;;;;2.95;1.70;;;;;;;;;;5065441;28;20127;-38
2023/08/16 06:58:58;;;;;;;2.78;1.90;;;22.30;71.10;;;;;;5063829;28;20136;-36
2023/08/16 07:01:25;;;;;;;2.40;1.90;;;21.80;85.50;;;;;;5061093;28;20171;-35
2023/08/16 07:03:52;;;;;;;2.13;1.70;;;;;;;;;;5053800;28;20048;-37
2023/08/16 07:06:19;;;;;;;1.90;1.63;;;21.50;85.00;;;;;;5054535;28;20140;-36
2023/08/16 07:08:46;;;;;;;2.10;1.65;;;21.00;84.90;;;;;;5054554;28;20088;-37
2023/08/16 07:11:14;;;;;;;2.10;1.55;;;21.30;70.70;;;;;;5054240;28;20059;-37
2023/08/16 07:13:41;;;;;;;1.50;1.40;;;;;;;;;;5063472;28;20131;-33
2023/08/16 07:16:07;;;;;;;1.80;1.50;;;21.20;84.70;;;;;;5073964;28;20127;-35
2023/08/16 07:18:34;;;;;;;2.45;1.65;;;21.20;85.00;;;;;;5074470;28;20155;-38
2023/08/16 07:21:01;;;;;;;1.73;1.50;;;20.80;79.30;;;;;;5073955;28;20136;-35
2023/08/16 07:23:28;;;;;;;1.70;1.50;;;21.70;85.20;;;;;;5068078;28;20476;-35
2023/08/16 07:25:56;;;;;;;1.85;1.73;;;21.40;68.40;;;;;;5074104;28;20136;-35
2023/08/16 07:28:24;;;;;;;2.03;1.80;;;20.60;84.40;;;;;;5073724;28;20052;-40
2023/08/16 07:30:53;;;;;;;2.38;1.80;;;21.40;68.40;;;;;;5074124;28;20059;-33
2023/08/16 07:33:20;;;;;;;1.92;1.60;;;21.20;84.80;;;;;;5072968;28;20119;-36
2023/08/16 07:35:47;;;;;;;2.25;1.80;;;;;;;;;;5074032;28;20040;-35
2023/08/16 07:38:14;;;;;;;1.70;1.60;;;21.40;80.80;;;;;;5065456;28;20135;-37
2023/08/16 07:40:41;;;;;;;1.98;1.70;;;21.10;84.70;;;;;;5053436;28;20133;-39
2023/08/16 07:43:08;;;;;;;2.20;1.75;;;21.10;77.30;;;;;;5053429;28;20114;-37
2023/08/16 07:45:36;;;;;;;3.47;1.83;;;21.40;85.00;;;;;;5053862;28;20132;-39
2023/08/16 07:48:03;;;;;;;1.80;1.60;;;21.40;85.70;;;;;;5070638;28;20131;-36
2023/08/16 07:50:30;;;;;;;2.55;1.80;;;22.30;76.70;;;;;;5073179;28;20048;-35
2023/08/16 07:52:57;;;;;;;3.60;1.90;;;;;;;;;;5072812;28;20119;-37
2023/08/16 07:55:29;;;;;;;2.38;1.70;;;;;;;;;;5073298;28;20149;-34
2023/08/16 07:57:55;;;;;;;2.05;1.67;;;21.30;85.70;;;;;;5073584;28;20044;-38
2023/08/16 08:00:23;;;;;;;2.13;1.70;;;20.60;74.50;;;;;;5073269;28;20139;-37
2023/08/16 08:02:51;;;;;;;2.05;1.63;;;22.00;85.60;;;;;;5067218;28;20510;-39
2023/08/16 08:05:18;;;;;;;2.38;2.00;;;20.90;81.10;;;;;;5052132;28;20642;-37
2023/08/16 08:07:44;;;;;;;2.33;1.92;;;21.10;78.80;;;;;;5053024;28;20128;-35
2023/08/16 08:10:11;;;;;;;2.05;1.70;;;;;;;;;;5053109;28;20136;-39
2023/08/16 08:12:39;;;;;;;1.80;1.50;;;;;;;;;;5056407;28;20079;-36
2023/08/16 08:15:06;;;;;;;2.80;1.77;;;21.30;70.20;;;;;;5071497;28;20128;-36
2023/08/16 08:17:33;;;;;;;2.25;1.80;;;21.40;83.90;;;;;;5072291;28;20127;-37
2023/08/16 08:20:01;;;;;;;3.55;1.63;;;21.00;85.80;;;;;;5072961;28;20130;-37
2023/08/16 08:22:28;;;;;;;1.92;1.50;;;20.90;84.70;;;;;;5071713;28;20139;-38
2023/08/16 08:24:54;;;;;;;2.00;1.73;;;21.20;85.20;;;;;;5073131;28;20128;-38
2023/08/16 08:27:21;;;;;;;1.63;1.50;;;22.60;78.60;;;;;;5072774;28;20048;-37
2023/08/16 08:29:48;;;;;;;2.13;1.58;;;21.50;85.10;;;;;;5073096;28;20480;-35
2023/08/16 08:32:14;;;;;;;2.47;1.50;;;21.90;79.20;;;;;;5069131;28;20136;-37
2023/08/16 08:34:41;;;;;;;2.28;1.58;;;22.80;73.20;;;;;;5052849;28;20566;-36
2023/08/16 08:37:09;;;;;;;2.05;1.52;;;21.60;84.90;;;;;;5062980;28;20056;-37
2023/08/16 08:39:36;;;;;;;1.42;1.33;;;;;;;;;;5071792;28;20091;-33
2023/08/16 08:42:04;;;;;;;1.35;1.25;;;;;;;;;;5072018;28;20391;-32
2023/08/16 08:44:31;;;;;;;1.98;1.30;;;21.80;84.60;;;;;;5062072;28;20059;-36
2023/08/16 08:46:59;;;;;;;2.53;1.27;;;21.80;70.90;;;;;;5061429;28;20123;-37
2023/08/16 08:49:26;;;;;;;2.22;1.50;;;21.00;70.80;;;;;;5058822;28;20052;-35
2023/08/16 08:51:52;;;;;;;2.95;1.50;;;21.90;84.10;;;;;;5062682;28;20124;-37
2023/08/16 08:54:20;;;;;;;1.35;1.25;;;22.10;84.60;;;;;;5060483;28;20052;-38
2023/08/16 08:56:52;;;;;;;1.40;1.20;;;21.30;83.40;;;;;;5061994;28;20151;-39
2023/08/16 08:59:19;;;;;;;1.60;1.30;;;22.10;79.60;;;;;;5062673;28;20055;-37
2023/08/16 09:01:45;;;;;;;2.25;1.20;;;22.00;83.50;;;;;;5059428;28;20127;-39
2023/08/16 09:04:13;;;;;;;1.45;1.13;;;21.10;77.40;;;;;;5069540;28;20135;-37
2023/08/16 09:06:40;;;;;;;1.70;1.40;;;21.50;83.10;;;;;;5064127;28;20128;-35
2023/08/16 09:09:07;;;;;;;1.80;1.20;;;23.20;78.20;;;;;;5067671;28;20127;-36
2023/08/16 09:11:35;;;;;;;1.77;1.30;;;22.40;83.70;;;;;;5063265;28;20051;-36
2023/08/16 09:14:03;;;;;;;1.92;1.27;;;22.00;73.70;;;;;;5051277;28;20124;-36
2023/08/16 09:16:30;;;;;;;1.83;1.20;;;;;;;;;;5059240;28;20044;-32
2023/08/16 09:18:57;;;;;;;2.63;1.45;;;22.20;82.70;;;;;;5061129;28;20123;-40
2023/08/16 09:21:28;;;;;;;2.35;1.20;;;;;;;;;;5071440;28;20063;-36
2023/08/16 09:23:59;;;;;;;1.50;1.15;;;22.20;73.50;;;;;;5064148;28;20048;-37
2023/08/16 09:26:27;;;;;;;1.20;1.10;;;23.50;83.10;;;;;;5072339;28;20083;-40
2023/08/16 09:28:58;;;;;;;1.90;1.20;;;23.70;83.30;;;;;;5071704;28;20189;-38
2023/08/16 09:31:25;;;;;;;1.05;1.00;;;21.60;68.40;;;;;;5071832;28;20051;-36
2023/08/16 09:33:54;;;;;;;1.25;1.15;;;22.40;82.70;;;;;;5070856;28;20123;-39
2023/08/16 09:36:21;;;;;;;1.33;1.13;;;;;;;;;;5071316;28;20051;-34
2023/08/16 09:38:48;;;;;;;1.30;1.02;;;22.40;82.30;;;;;;5071536;28;20087;-37
2023/08/16 09:41:16;;;;;;;1.70;1.20;;;22.60;82.10;;;;;;5071660;28;20480;-37
2023/08/16 09:43:43;;;;;;;2.15;1.20;;;;;;;;;;5070570;28;20053;-35
2023/08/16 09:46:12;;;;;;;1.88;1.10;;;22.50;79.70;;;;;;5071729;28;20047;-40
2023/08/16 09:48:40;;;;;;;1.50;1.20;;;22.60;66.00;;;;;;5071815;28;20060;-37
2023/08/16 09:51:07;;;;;;;1.38;1.10;;;22.10;66.20;;;;;;5071332;28;20060;-40
2023/08/16 09:53:34;;;;;;;2.08;1.10;;;23.90;83.10;;;;;;5063557;28;20073;-39
2023/08/16 09:56:02;;;;;;;2.08;1.10;;;;;;;;;;5051523;28;20064;-36
2023/08/16 09:58:30;;;;;;;2.03;1.30;;;21.90;82.30;;;;;;5051471;28;20049;-37
2023/08/16 10:00:58;;;;;;;1.58;1.10;;;;;;;;;;5059198;28;20144;-35
2023/08/16 10:03:26;;;;;;;1.20;1.10;;;22.80;65.80;;;;;;5054295;28;20049;-37
2023/08/16 10:05:53;;;;;;;1.67;1.20;;;22.80;82.40;;;;;;5051334;28;20081;-35
2023/08/16 10:08:20;;;;;;;1.88;1.10;;;;;;;;;;5050140;28;20510;-35
2023/08/16 10:10:47;;;;;;;2.13;1.20;;;22.40;82.60;;;;;;5051296;28;20558;-38
2023/08/16 10:13:13;;;;;;;1.30;1.00;;;22.70;82.20;;;;;;5053810;28;20052;-37
2023/08/16 10:15:40;;;;;;;2.95;1.17;;;;;;;;;;5071198;28;20132;-33
2023/08/16 10:18:07;;;;;;;1.25;1.10;;;22.50;67.60;;;;;;5068363;28;20136;-39
2023/08/16 10:20:37;;;;;;;1.48;1.15;;;23.00;65.60;;;;;;5061923;28;20136;-34
2023/08/16 10:23:04;;;;;;;2.58;1.10;;;23.00;65.50;;;;;;5068790;28;20132;-37
2023/08/16 10:25:36;;;;;;;1.40;1.00;;;23.30;79.10;;;;;;5071065;28;20049;-38
2023/08/16 10:28:03;;;;;;;1.80;1.10;;;23.40;78.80;;;;;;5064197;28;20053;-36
2023/08/16 10:30:30;;;;;;;1.45;1.00;;;23.00;81.80;;;;;;5051405;28;20159;-37
2023/08/16 10:32:58;;;;;;;3.05;1.20;;;22.80;67.20;;;;;;5051329;28;20128;-38
2023/08/16 10:35:25;;;;;;;2.72;1.00;;;22.30;76.30;;;;;;5056508;28;20048;-35
2023/08/16 10:37:56;;;;;;;1.95;1.30;;;21.90;80.90;;;;;;5070555;28;20123;-39
2023/08/16 10:40:24;;;;;;;2.67;1.30;;;23.10;79.80;;;;;;5074651;28;20053;-36
2023/08/16 10:42:57;;;;;;;1.35;1.00;;;23.10;65.40;;;;;;5074022;28;20079;-36
2023/08/16 10:45:25;;;;;;;1.58;1.00;;;23.10;82.70;;;;;;5057134;28;20055;-35
2023/08/16 10:47:52;;;;;;;2.40;1.30;;;22.80;81.50;;;;;;5064811;28;20083;-36
2023/08/16 10:50:19;;;;;;;1.52;1.10;;;22.30;81.40;;;;;;5071508;28;20048;-37
2023/08/16 10:52:45;;;;;;;1.27;1.13;;;23.00;73.60;;;;;;5073230;28;20127;-39
2023/08/16 10:55:14;;;;;;;1.20;1.10;;;24.50;82.30;;;;;;5074079;28;20128;-35
2023/08/16 10:57:52;;;;;;;1.45;1.00;;;23.20;65.40;;;;;;5074251;28;20048;-35
2023/08/16 11:00:19;;;;;;;1.70;1.20;;;;;;;;;;5073966;28;20059;-38
2023/08/16 11:02:48;;;;;;;1.13;1.00;;;22.20;81.00;;;;;;5061592;28;20045;-35
2023/08/16 11:05:17;;;;;;;3.85;1.15;;;23.20;65.40;;;;;;5054400;28;20524;-35
2023/08/16 11:07:44;;;;;;;1.10;1.00;;;22.80;81.80;;;;;;5054415;28;20049;-37
2023/08/16 11:10:12;;;;;;;1.17;1.00;;;24.10;82.90;;;;;;5054537;28;20080;-39
2023/08/16 11:12:39;;;;;;;1.88;1.20;;;22.90;81.50;;;;;;5063482;28;20080;-37
2023/08/16 11:15:08;;;;;;;2.03;1.10;;;23.20;65.40;;;;;;5072957;28;20464;-36
2023/08/16 11:17:35;;;;;;;1.40;1.00;;;24.00;82.00;;;;;;5074076;28;20048;-36
2023/08/16 11:20:04;;;;;;;1.27;1.08;;;;;;;;;;5074371;28;20132;-39
2023/08/16 11:22:31;;;;;;;1.30;1.05;;;;;;;;;;5063227;28;20591;-36
2023/08/16 11:25:00;;;;;;;1.13;1.00;;;23.20;65.50;;;;;;5054173;28;20483;-36
2023/08/16 11:27:29;;;;;;;2.08;1.20;;;23.50;82.70;;;;;;5055885;28;20140;-35
2023/08/16 11:29:55;;;;;;;1.40;1.00;;;23.30;81.80;;;;;;5070857;28;20044;-37
2023/08/16 11:32:33;;;;;;;1.42;1.00;;;23.10;65.50;;;;;;5064794;28;20072;-38
2023/08/16 11:35:00;;;;;;;1.17;1.00;;;22.50;81.70;;;;;;5052327;28;20063;-40
2023/08/16 11:37:27;;;;;;;1.10;1.00;;;;;;;;;;5064718;28;20135;-33
2023/08/16 11:39:59;;;;;;;2.00;1.10;;;23.10;65.50;;;;;;5071861;28;20044;-39
2023/08/16 11:42:28;;;;;;;3.42;1.10;;;23.20;79.30;;;;;;5062336;28;20056;-35
2023/08/16 11:44:55;;;;;;;2.13;1.13;;;;;;;;;;5052216;28;20159;-37
2023/08/16 11:47:21;;;;;;;1.20;1.00;;;23.30;82.60;;;;;;5051843;28;20799;-40
2023/08/16 11:49:49;;;;;;;2.47;1.17;;;23.20;82.60;;;;;;5052673;28;20148;-37
2023/08/16 11:52:20;;;;;;;1.40;1.20;;;22.70;82.30;;;;;;5053329;28;20473;-31
2023/08/16 11:54:47;;;;;;;2.40;1.17;;;23.20;70.40;;;;;;5053735;28;20463;-33
2023/08/16 11:57:18;;;;;;;1.08;0.90;;;24.00;66.10;;;;;;5053411;28;20136;-36
2023/08/16 11:59:54;;;;;;;0.95;0.90;;;23.00;81.80;;;;;;5053444;28;20049;-36
2023/08/16 12:02:21;;;;;;;0.88;0.80;;;23.90;82.30;;;;;;5053179;28;20056;-36
2023/08/16 12:04:47;;;;;;;1.58;1.08;;;23.20;72.80;;;;;;5053423;28;20132;-39
2023/08/16 12:07:14;;;;;;;1.95;1.10;;;23.10;81.80;;;;;;5053270;28;20076;-37
2023/08/16 12:09:41;;;;;;;1.42;1.08;;;23.00;82.20;;;;;;5053479;28;20136;-40
2023/08/16 12:12:08;;;;;;;1.05;0.90;;;23.40;69.10;;;;;;5052946;28;20068;-37
2023/08/16 12:14:35;;;;;;;2.40;1.20;;;23.60;82.30;;;;;;5057883;28;20049;-38
2023/08/16 12:17:03;;;;;;;1.90;1.10;;;23.10;65.70;;;;;;5073040;28;20139;-36
2023/08/16 12:19:30;;;;;;;1.30;1.10;;;23.00;69.30;;;;;;5073074;28;20132;-36
2023/08/16 12:21:57;;;;;;;1.20;1.00;;;;;;;;;;5068544;28;20045;-37
2023/08/16 12:24:24;;;;;;;1.30;1.00;;;;;;;;;;5052725;28;20151;-34
2023/08/16 12:26:51;;;;;;;1.77;1.10;;;23.70;82.10;;;;;;5053120;28;20053;-39
2023/08/16 12:29:18;;;;;;;1.33;1.20;;;;;;;;;;5069751;28;20597;-40
2023/08/16 12:31:45;;;;;;;1.50;1.10;;;23.70;82.80;;;;;;5070238;28;20472;-38
2023/08/16 12:34:13;;;;;;;1.67;1.10;;;22.60;81.50;;;;;;5052625;28;20136;-38
2023/08/16 12:36:40;;;;;;;1.58;1.00;;;22.80;81.60;;;;;;5059180;28;20551;-39
2023/08/16 12:39:07;;;;;;;1.95;1.00;;;;;;;;;;5072903;28;20088;-33
2023/08/16 12:41:33;;;;;;;1.40;1.00;;;23.40;82.80;;;;;;5071346;28;20051;-36
2023/08/16 12:44:01;;;;;;;1.73;1.20;;;;;;;;;;5052372;28;20076;-35
2023/08/16 12:46:28;;;;;;;1.30;1.00;;;23.70;82.10;;;;;;5052504;28;20049;-36
2023/08/16 12:48:55;;;;;;;1.23;1.00;;;24.20;82.30;;;;;;5052614;28;20049;-36
2023/08/16 12:51:23;;;;;;;1.25;1.00;;;23.10;82.50;;;;;;5052419;28;20461;-37
2023/08/16 12:53:51;;;;;;;1.00;0.90;;;22.50;82.10;;;;;;5051859;28;20065;-35
2023/08/16 12:56:18;;;;;;;1.42;1.00;;;;;;;;;;5052028;28;20397;-37
2023/08/16 12:58:44;;;;;;;1.00;0.90;;;23.30;75.30;;;;;;5052127;28;20409;-39
2023/08/16 13:01:11;;;;;;;1.77;1.10;;;23.00;67.60;;;;;;5051430;28;20128;-34
2023/08/16 13:03:38;;;;;;;1.63;1.05;;;22.90;81.50;;;;;;5051862;28;20557;-39
2023/08/16 13:06:05;;;;;;;1.00;0.88;;;23.30;81.80;;;;;;5064726;28;20131;-36
2023/08/16 13:08:33;;;;;;;1.50;1.10;;;23.10;81.00;;;;;;5072451;28;20055;-37
2023/08/16 13:11:00;;;;;;;1.10;1.00;;;23.10;81.70;;;;;;5072097;28;20127;-36